Time;durP1;ratioP1;P1;durP2;ratioP2;P2;SDS_P1;SDS_P2;PMS_P1;PMS_P2;Temp;Humidity;BMP_temperature;BMP_pressure;BME280_temperature;BME280_humidity;BME280_pressure;Samples;Min_cycle;Max_cycle;Signal;HPM_P1;HPM_P2
2022/11/22 00:01:02;;;;;;;;;;;;;;;3.63;53.44;93348.59;5082094;28;20085;-67
2022/11/22 00:03:27;;;;;;;;;;;;;;;3.76;54.86;93341.78;5081384;28;20020;-66
2022/11/22 00:05:52;;;;;;;;;;;;;;;3.87;52.44;93343.06;5083224;28;19993;-67
2022/11/22 00:08:18;;;;;;;;;;;;;;;3.41;56.39;93343.31;5084360;28;20440;-65
2022/11/22 00:10:43;;;;;;;;;;;;;;;3.68;53.92;93338.28;5084609;28;20375;-66
2022/11/22 00:13:08;;;;;;;;;;;;;;;3.62;53.96;93338.25;5082293;28;19992;-66
2022/11/22 00:15:33;;;;;;;;;;;;;;;3.52;54.67;93338.56;5082849;28;20803;-68
2022/11/22 00:17:59;;;;;;;;;;;;;;;3.72;52.25;93335.28;5081864;28;20416;-67
2022/11/22 00:20:24;;;;;;;;;;;;;;;3.65;53.20;93343.13;5083240;28;20348;-66
2022/11/22 00:22:49;;;;;;;;;;;;;;;2.39;54.40;93343.28;5082394;28;20030;-67
2022/11/22 00:25:14;;;;;;;;;;;;;;;2.26;57.70;93336.03;5081759;28;20024;-68
2022/11/22 00:27:40;;;;;;;;;;;;;;;3.30;57.90;93328.03;5082133;28;19983;-68
2022/11/22 00:30:05;;;;;;;;;;;;;;;3.71;54.78;93320.50;5081239;28;20341;-67
2022/11/22 00:32:30;;;;;;;;;;;;;;;3.53;56.35;93317.34;5085423;28;19988;-65
2022/11/22 00:34:55;;;;;;;;;;;;;;;3.75;55.88;93321.75;5082257;28;19969;-68
2022/11/22 00:37:21;;;;;;;;;;;;;;;3.85;54.52;93314.34;5080974;28;19984;-67
2022/11/22 00:39:46;;;;;;;;;;;;;;;4.09;54.64;93321.94;5077079;28;20404;-67
2022/11/22 00:42:11;;;;;;;;;;;;;;;4.09;55.14;93306.97;5081226;28;20322;-66
2022/11/22 00:44:36;;;;;;;;;;;;;;;4.06;53.11;93312.63;5081680;28;19988;-68
2022/11/22 00:47:02;;;;;;;;;;;;;;;4.18;53.68;93310.25;5079990;28;19972;-68
2022/11/22 00:49:27;;;;;;;;;;;;;;;3.76;55.04;93304.94;5082980;28;20039;-67
2022/11/22 00:51:52;;;;;;;;;;;;;;;3.75;55.32;93306.78;5080984;28;20012;-68
2022/11/22 00:54:17;;;;;;;;;;;;;;;3.63;54.58;93303.03;5083632;28;20327;-68
2022/11/22 00:56:42;;;;;;;;;;;;;;;3.42;53.19;93312.56;5078388;28;20307;-68
2022/11/22 00:59:08;;;;;;;;;;;;;;;3.31;55.81;93311.25;5082955;28;19976;-68
2022/11/22 01:01:33;;;;;;;;;;;;;;;3.74;55.36;93312.22;5081848;28;20451;-68
2022/11/22 01:03:58;;;;;;;;;;;;;;;4.04;54.63;93302.28;5084040;28;20391;-66
2022/11/22 01:06:23;;;;;;;;;;;;;;;3.81;53.90;93305.16;5065237;28;20080;-67
2022/11/22 01:08:49;;;;;;;;;;;;;;;4.16;53.27;93301.75;5080078;28;19992;-67
2022/11/22 01:11:14;;;;;;;;;;;;;;;4.31;54.60;93304.22;5082861;28;20119;-66
2022/11/22 01:13:39;;;;;;;;;;;;;;;4.23;51.48;93317.56;5062961;28;19995;-68
2022/11/22 01:16:05;;;;;;;;;;;;;;;4.16;51.90;93326.25;5081029;28;20000;-67
2022/11/22 01:18:31;;;;;;;;;;;;;;;4.05;52.73;93322.34;5080709;28;19975;-67
2022/11/22 01:20:56;;;;;;;;;;;;;;;3.98;54.64;93325.94;5082920;28;20460;-68
2022/11/22 01:23:21;;;;;;;;;;;;;;;4.13;54.79;93334.56;5081492;28;20026;-65
2022/11/22 01:25:46;;;;;;;;;;;;;;;3.78;56.42;93331.91;5083524;28;20563;-66
2022/11/22 01:28:12;;;;;;;;;;;;;;;4.24;53.81;93321.81;5082675;28;20079;-67
2022/11/22 01:30:37;;;;;;;;;;;;;;;4.41;53.91;93328.41;5083468;28;19980;-67
2022/11/22 01:33:02;;;;;;;;;;;;;;;4.03;54.87;93331.44;5082631;28;20205;-65
2022/11/22 01:35:27;;;;;;;;;;;;;;;4.25;54.15;93337.44;5082395;28;19975;-68
2022/11/22 01:37:53;;;;;;;;;;;;;;;4.38;54.26;93326.16;5083417;28;19985;-67
2022/11/22 01:40:18;;;;;;;;;;;;;;;4.69;53.23;93324.84;5082104;28;20075;-67
2022/11/22 01:42:54;;;;;;;;;;;;;;;4.81;52.65;93326.94;5087096;28;20472;-67
2022/11/22 01:45:28;;;;;;;;;;;;;;;4.94;52.76;93326.16;5088998;28;19992;-66
2022/11/22 01:48:09;;;;;;;;;;;;;;;4.87;51.98;93331.41;5084367;28;20475;-68
2022/11/22 01:50:34;;;;;;;;;;;;;;;4.58;53.42;93330.69;5084535;28;19995;-66
2022/11/22 01:53:01;;;;;;;;;;;;;;;4.97;52.46;93334.47;5086949;28;19988;-67
2022/11/22 01:55:27;;;;;;;;;;;;;;;4.79;50.02;93339.47;5070207;28;20241;-68
2022/11/22 01:57:52;;;;;;;;;;;;;;;3.22;56.15;93338.69;5084481;28;20554;-66
2022/11/22 02:00:17;;;;;;;;;;;;;;;4.35;53.94;93342.34;5087048;28;20143;-67
2022/11/22 02:02:43;;;;;;;;;;;;;;;4.74;53.23;93349.81;5088801;28;20088;-68
2022/11/22 02:05:09;;;;;;;;;;;;;;;4.68;50.70;93351.41;5070286;28;20206;-68
2022/11/22 02:07:36;;;;;;;;;;;;;;;5.01;50.26;93350.72;5086961;28;19973;-67
2022/11/22 02:10:01;;;;;;;;;;;;;;;4.50;52.66;93350.13;5087286;28;19985;-68
2022/11/22 02:12:26;;;;;;;;;;;;;;;4.52;52.38;93358.66;5089844;28;19991;-68
2022/11/22 02:14:52;;;;;;;;;;;;;;;4.81;53.25;93361.19;5086532;28;20812;-68
2022/11/22 02:48:11;;;;;;;;;;;;;;;4.38;51.39;93355.13;5085038;28;20048;-68
2022/11/22 02:50:37;;;;;;;;;;;;;;;4.62;53.28;93366.19;5069367;28;19993;-68
2022/11/22 02:53:02;;;;;;;;;;;;;;;3.38;54.18;93379.72;5085612;28;20099;-68
2022/11/22 02:55:27;;;;;;;;;;;;;;;3.70;52.99;93379.41;5087057;28;19965;-68
2022/11/22 02:57:52;;;;;;;;;;;;;;;2.24;57.76;93380.84;5086356;28;20027;-68
2022/11/22 03:00:18;;;;;;;;;;;;;;;3.50;55.65;93365.06;5089510;28;19985;-68
2022/11/22 03:02:43;;;;;;;;;;;;;;;3.90;53.86;93367.22;5089163;28;20026;-67
2022/11/22 03:05:08;;;;;;;;;;;;;;;4.40;53.35;93370.75;5087771;28;19992;-68
2022/11/22 03:22:47;;;;;;;;;;;;;;;4.29;52.62;93404.53;5085136;28;19999;-68
2022/11/22 03:25:12;;;;;;;;;;;;;;;4.54;51.84;93406.72;5089218;28;20000;-68
2022/11/22 03:27:37;;;;;;;;;;;;;;;4.67;51.55;93408.63;5089386;28;20058;-68
2022/11/22 03:30:03;;;;;;;;;;;;;;;4.68;51.43;93398.88;5085513;28;20023;-68
2022/11/22 03:32:28;;;;;;;;;;;;;;;4.75;51.02;93412.06;5087200;28;19993;-68
2022/11/22 03:34:53;;;;;;;;;;;;;;;4.36;52.20;93417.75;5088590;28;20017;-68
2022/11/22 03:37:19;;;;;;;;;;;;;;;4.75;51.68;93419.97;5087505;28;20004;-68
2022/11/22 03:39:44;;;;;;;;;;;;;;;4.44;51.72;93427.31;5086455;28;19969;-68
2022/11/22 03:42:09;;;;;;;;;;;;;;;4.07;52.88;93414.31;5084357;28;20287;-68
2022/11/22 03:44:34;;;;;;;;;;;;;;;4.69;51.84;93422.41;5085303;28;19995;-68
2022/11/22 03:46:59;;;;;;;;;;;;;;;4.83;50.68;93428.53;5086872;28;20067;-68
2022/11/22 03:49:25;;;;;;;;;;;;;;;4.63;51.47;93433.69;5085213;28;20003;-67
2022/11/22 03:51:50;;;;;;;;;;;;;;;4.73;52.87;93429.91;5084836;28;19992;-67
2022/11/22 03:54:15;;;;;;;;;;;;;;;4.82;52.71;93424.28;5089085;28;19967;-68
2022/11/22 03:56:40;;;;;;;;;;;;;;;4.63;51.53;93438.97;5086533;28;20367;-68
2022/11/22 03:59:06;;;;;;;;;;;;;;;4.78;51.68;93438.03;5084397;28;20447;-68
2022/11/22 04:01:31;;;;;;;;;;;;;;;4.64;51.83;93453.81;5089082;28;20001;-68
2022/11/22 04:03:56;;;;;;;;;;;;;;;3.66;54.72;93456.09;5064616;28;20018;-68
2022/11/22 04:06:21;;;;;;;;;;;;;;;3.12;56.15;93452.88;5086016;28;19979;-68
2022/11/22 04:08:47;;;;;;;;;;;;;;;4.21;53.03;93446.03;5085489;28;19993;-68
2022/11/22 04:11:12;;;;;;;;;;;;;;;4.36;51.52;93444.13;5084566;28;20036;-68
2022/11/22 04:16:21;;;;;;;;;;;;;;;3.68;53.93;93438.28;5081593;28;20018;-68
2022/11/22 04:18:46;;;;;;;;;;;;;;;4.23;52.70;93447.47;5067335;28;20016;-68
2022/11/22 04:26:39;;;;;;;;;;;;;;;4.61;52.94;93443.66;5087754;28;19975;-68
2022/11/22 04:29:04;;;;;;;;;;;;;;;3.79;53.99;93439.63;5085210;28;19993;-68
2022/11/22 04:34:13;;;;;;;;;;;;;;;4.16;52.88;93438.69;5086702;28;20035;-67
2022/11/22 04:36:39;;;;;;;;;;;;;;;4.08;53.69;93426.47;5083818;28;20016;-68
2022/11/22 04:39:04;;;;;;;;;;;;;;;3.87;53.33;93424.69;5082844;28;19983;-67
2022/11/22 04:41:29;;;;;;;;;;;;;;;4.23;51.89;93428.19;5084503;28;20046;-68
2022/11/22 04:46:38;;;;;;;;;;;;;;;3.67;53.73;93434.03;5085382;28;19975;-68
2022/11/22 04:49:04;;;;;;;;;;;;;;;3.63;54.05;93432.78;5083001;28;19993;-68
2022/11/22 04:54:13;;;;;;;;;;;;;;;2.03;57.67;93434.06;5089055;28;19999;-67
2022/11/22 04:56:38;;;;;;;;;;;;;;;2.23;57.47;93430.91;5084234;28;20400;-67
2022/11/22 04:59:03;;;;;;;;;;;;;;;2.04;57.97;93437.50;5085883;28;19972;-68
2022/11/22 05:01:28;;;;;;;;;;;;;;;2.35;56.93;93434.72;5086231;28;19992;-68
2022/11/22 05:03:53;;;;;;;;;;;;;;;2.53;56.16;93428.31;5087755;28;20163;-68
2022/11/22 05:06:19;;;;;;;;;;;;;;;1.81;58.48;93433.09;5087520;28;20387;-67
2022/11/22 05:08:44;;;;;;;;;;;;;;;2.14;57.50;93444.13;5083639;28;20019;-68
2022/11/22 05:11:09;;;;;;;;;;;;;;;2.01;57.82;93443.94;5086582;28;19985;-67
2022/11/22 05:13:35;;;;;;;;;;;;;;;1.77;59.68;93443.13;5083392;28;19989;-67
2022/11/22 05:16:01;;;;;;;;;;;;;;;2.35;56.47;93447.84;5086277;28;19992;-68
2022/11/22 05:18:26;;;;;;;;;;;;;;;1.40;59.54;93468.31;5089052;28;19968;-67
2022/11/22 05:20:51;;;;;;;;;;;;;;;1.85;58.51;93466.69;5088846;28;20005;-67
2022/11/22 05:26:01;;;;;;;;;;;;;;;1.93;59.22;93472.84;5075025;28;20081;-67
2022/11/22 05:28:27;;;;;;;;;;;;;;;1.99;58.42;93482.66;5089498;28;19988;-67
2022/11/22 05:30:52;;;;;;;;;;;;;;;1.75;58.06;93472.19;5089192;28;19999;-68
2022/11/22 05:33:17;;;;;;;;;;;;;;;2.31;57.28;93469.41;5089715;28;20343;-67
2022/11/22 05:35:42;;;;;;;;;;;;;;;1.87;58.50;93479.63;5090201;28;20348;-67
2022/11/22 05:38:07;;;;;;;;;;;;;;;1.94;59.08;93479.75;5088778;28;19972;-68
2022/11/22 05:40:33;;;;;;;;;;;;;;;2.91;55.13;93480.75;5089065;28;20019;-67
2022/11/22 05:42:58;;;;;;;;;;;;;;;3.23;55.41;93483.13;5091495;28;19968;-67
2022/11/22 05:45:23;;;;;;;;;;;;;;;2.50;55.66;93483.81;5087860;28;19988;-67
2022/11/22 05:47:48;;;;;;;;;;;;;;;2.18;57.09;93491.03;5089435;28;19977;-68
2022/11/22 05:50:14;;;;;;;;;;;;;;;1.96;57.43;93493.50;5087586;28;19988;-68
2022/11/22 05:52:39;;;;;;;;;;;;;;;3.16;54.39;93483.06;5090841;28;20083;-68
2022/11/22 05:55:04;;;;;;;;;;;;;;;3.47;55.83;93483.84;5090962;28;20021;-67
2022/11/22 05:57:30;;;;;;;;;;;;;;;3.62;56.27;93496.13;5087109;28;20069;-68
2022/11/22 05:59:56;;;;;;;;;;;;;;;3.79;54.20;93496.72;5089752;28;20731;-68
2022/11/22 06:02:21;;;;;;;;;;;;;;;3.86;53.46;93504.66;5086195;28;20512;-68
2022/11/22 06:04:46;;;;;;;;;;;;;;;4.05;53.67;93490.06;5086448;28;19995;-68
2022/11/22 06:07:11;;;;;;;;;;;;;;;4.17;51.89;93499.09;5086304;28;19983;-68
2022/11/22 06:09:36;;;;;;;;;;;;;;;3.96;51.64;93507.00;5090318;28;20346;-68
2022/11/22 06:12:02;;;;;;;;;;;;;;;4.16;53.25;93509.81;5090199;28;19991;-68
2022/11/22 06:14:27;;;;;;;;;;;;;;;4.24;54.04;93519.38;5087897;28;20086;-68
2022/11/22 06:16:52;;;;;;;;;;;;;;;4.36;54.89;93515.25;5087726;28;19984;-67
2022/11/22 06:19:17;;;;;;;;;;;;;;;4.21;53.19;93523.22;5089284;28;20246;-68
2022/11/22 06:21:43;;;;;;;;;;;;;;;4.34;52.36;93530.41;5088097;28;20023;-68
2022/11/22 06:24:08;;;;;;;;;;;;;;;4.20;54.44;93534.75;5088013;28;20053;-68
2022/11/22 06:26:33;;;;;;;;;;;;;;;4.34;53.05;93535.69;5087674;28;20441;-68
2022/11/22 06:28:59;;;;;;;;;;;;;;;4.57;54.72;93545.19;5086155;28;20023;-67
2022/11/22 06:31:24;;;;;;;;;;;;;;;4.33;51.15;93549.88;5088608;28;19996;-68
2022/11/22 06:33:50;;;;;;;;;;;;;;;4.54;52.97;93550.84;5087426;28;20079;-68
2022/11/22 06:36:16;;;;;;;;;;;;;;;4.70;53.90;93555.81;5087433;28;20040;-67
2022/11/22 06:38:41;;;;;;;;;;;;;;;4.65;52.96;93555.59;5087254;28;20015;-68
2022/11/22 06:41:08;;;;;;;;;;;;;;;4.74;50.87;93556.28;5087147;28;20011;-68
2022/11/22 06:43:33;;;;;;;;;;;;;;;4.74;52.79;93558.91;5086280;28;20025;-67
2022/11/22 06:45:58;;;;;;;;;;;;;;;4.87;52.73;93570.53;5087286;28;19967;-68
2022/11/22 06:48:33;;;;;;;;;;;;;;;4.81;53.04;93564.22;5087432;28;19995;-68
2022/11/22 06:51:05;;;;;;;;;;;;;;;4.33;50.42;93574.38;5068973;28;19991;-68
2022/11/22 06:53:31;;;;;;;;;;;;;;;4.69;52.81;93559.47;5087390;28;20460;-68
2022/11/22 06:56:07;;;;;;;;;;;;;;;4.84;53.13;93577.03;5088475;28;19990;-68
2022/11/22 06:58:32;;;;;;;;;;;;;;;4.72;49.86;93574.09;5068856;28;20421;-68
2022/11/22 07:01:01;;;;;;;;;;;;;;;4.67;50.64;93579.13;5087558;28;19993;-67
2022/11/22 07:03:26;;;;;;;;;;;;;;;4.33;50.55;93581.50;5085664;28;20395;-68
2022/11/22 07:05:52;;;;;;;;;;;;;;;3.50;54.89;93580.81;5089303;28;20275;-68
2022/11/22 07:08:17;;;;;;;;;;;;;;;4.24;51.51;93580.78;5084632;28;20067;-68
2022/11/22 07:10:42;;;;;;;;;;;;;;;2.84;55.23;93586.78;5083841;28;20355;-68
2022/11/22 07:13:08;;;;;;;;;;;;;;;3.28;52.30;93590.44;5089902;28;20241;-67
2022/11/22 07:15:33;;;;;;;;;;;;;;;3.31;52.61;93595.34;5082738;28;19972;-68
2022/11/22 07:17:58;;;;;;;;;;;;;;;4.04;55.29;93589.31;5080570;28;19965;-68
2022/11/22 07:20:23;;;;;;;;;;;;;;;3.62;52.87;93586.44;5084245;28;20082;-68
2022/11/22 07:22:49;;;;;;;;;;;;;;;3.86;54.46;93592.38;5082419;28;20484;-68
2022/11/22 07:25:14;;;;;;;;;;;;;;;4.19;54.97;93594.50;5083997;28;20562;-68
2022/11/22 07:27:39;;;;;;;;;;;;;;;4.44;52.79;93596.78;5084705;28;20306;-68
2022/11/22 07:30:04;;;;;;;;;;;;;;;4.29;52.49;93598.69;5086598;28;20046;-68
2022/11/22 07:32:30;;;;;;;;;;;;;;;4.45;53.47;93601.06;5086296;28;20069;-67
2022/11/22 07:34:55;;;;;;;;;;;;;;;4.57;53.48;93603.16;5065413;28;20078;-68
2022/11/22 07:37:20;;;;;;;;;;;;;;;3.91;53.20;93600.50;5067156;28;19985;-68
2022/11/22 07:39:45;;;;;;;;;;;;;;;3.79;54.72;93607.28;5086021;28;20473;-68
2022/11/22 07:42:11;;;;;;;;;;;;;;;4.08;53.45;93605.53;5085849;28;20378;-67
2022/11/22 07:44:37;;;;;;;;;;;;;;;4.47;53.59;93603.50;5079972;28;19984;-68
2022/11/22 07:47:02;;;;;;;;;;;;;;;4.57;53.02;93598.72;5062855;28;19976;-67
2022/11/22 07:49:27;;;;;;;;;;;;;;;4.52;50.38;93603.72;5081082;28;19988;-68
2022/11/22 07:51:52;;;;;;;;;;;;;;;4.64;54.02;93595.31;5084187;28;20020;-67
2022/11/22 07:54:18;;;;;;;;;;;;;;;3.19;51.37;93600.22;5087888;28;20022;-67
2022/11/22 07:56:43;;;;;;;;;;;;;;;1.82;59.86;93608.75;5086271;28;20369;-67
2022/11/22 07:59:09;;;;;;;;;;;;;;;3.41;56.58;93593.22;5085161;28;20262;-68
2022/11/22 08:01:34;;;;;;;;;;;;;;;3.78;54.35;93598.53;5084603;28;20039;-67
2022/11/22 08:03:59;;;;;;;;;;;;;;;1.92;55.63;93607.69;5085393;28;20403;-67
2022/11/22 08:06:25;;;;;;;;;;;;;;;2.09;54.36;93608.41;5086914;28;19976;-68
2022/11/22 08:08:50;;;;;;;;;;;;;;;2.47;55.21;93610.25;5086079;28;19996;-67
2022/11/22 08:11:15;;;;;;;;;;;;;;;2.62;54.50;93615.56;5083902;28;19993;-68
2022/11/22 08:13:41;;;;;;;;;;;;;;;0.89;57.49;93624.16;5082630;28;20445;-67
2022/11/22 08:16:10;;;;;;;;;;;;;;;3.20;51.82;93606.31;5082543;28;20451;-68
2022/11/22 08:18:35;;;;;;;;;;;;;;;3.76;55.92;93605.84;5081236;28;19969;-67
2022/11/22 08:21:02;;;;;;;;;;;;;;;3.92;55.06;93602.13;5084497;28;20000;-67
2022/11/22 08:23:27;;;;;;;;;;;;;;;4.09;50.63;93601.09;5084157;28;20260;-68
2022/11/22 08:25:52;;;;;;;;;;;;;;;3.00;53.48;93610.28;5084404;28;20000;-68
2022/11/22 08:28:17;;;;;;;;;;;;;;;3.98;55.25;93602.41;5085948;28;20067;-67
2022/11/22 08:30:43;;;;;;;;;;;;;;;3.42;50.25;93608.03;5086987;28;20032;-68
2022/11/22 08:33:08;;;;;;;;;;;;;;;3.66;52.38;93619.28;5082469;28;20061;-67
2022/11/22 08:35:33;;;;;;;;;;;;;;;4.29;55.07;93611.84;5082360;28;19973;-67
2022/11/22 08:37:59;;;;;;;;;;;;;;;4.38;49.34;93618.63;5084651;28;20008;-68
2022/11/22 08:40:24;;;;;;;;;;;;;;;4.67;52.41;93623.94;5088352;28;19984;-68
2022/11/22 08:42:51;;;;;;;;;;;;;;;4.78;53.32;93630.50;5082462;28;20030;-67
2022/11/22 08:45:17;;;;;;;;;;;;;;;4.82;52.73;93622.03;5080762;28;20217;-68
2022/11/22 08:47:42;;;;;;;;;;;;;;;4.74;51.33;93624.81;5080395;28;20037;-68
2022/11/22 08:50:07;;;;;;;;;;;;;;;4.71;50.36;93627.81;5086230;28;20049;-68
2022/11/22 08:52:33;;;;;;;;;;;;;;;4.86;52.13;93619.03;5083990;28;20023;-68
2022/11/22 08:54:58;;;;;;;;;;;;;;;4.75;50.10;93631.72;5086663;28;20292;-69
2022/11/22 08:57:23;;;;;;;;;;;;;;;4.92;54.09;93637.53;5084263;28;19983;-69
2022/11/22 08:59:49;;;;;;;;;;;;;;;4.38;48.72;93652.03;5085366;28;20099;-68
2022/11/22 09:02:14;;;;;;;;;;;;;;;4.19;48.85;93660.38;5082443;28;19983;-68
2022/11/22 09:04:39;;;;;;;;;;;;;;;4.47;53.20;93655.38;5081802;28;20475;-69
2022/11/22 09:07:04;;;;;;;;;;;;;;;4.88;52.34;93657.38;5083249;28;19975;-69
2022/11/22 09:09:31;;;;;;;;;;;;;;;5.06;51.33;93656.09;5079673;28;20199;-68
2022/11/22 09:11:56;;;;;;;;;;;;;;;5.16;48.88;93647.84;5082304;28;20619;-68
2022/11/22 09:14:21;;;;;;;;;;;;;;;4.82;48.29;93658.13;5083443;28;20102;-69
2022/11/22 09:16:47;;;;;;;;;;;;;;;5.13;43.69;93643.78;5083592;28;20366;-67
2022/11/22 09:19:12;;;;;;;;;;;;;;;3.72;45.64;93661.66;5081494;28;19983;-69
2022/11/22 09:21:37;;;;;;;;;;;;;;;3.58;47.77;93668.56;5077850;28;20052;-67
2022/11/22 09:24:02;;;;;;;;;;;;;;;4.25;45.83;93671.97;5080201;28;20509;-68
2022/11/22 09:26:28;;;;;;;;;;;;;;;4.16;45.58;93681.00;5077638;28;19980;-68
2022/11/22 09:28:54;;;;;;;;;;;;;;;4.26;47.59;93686.81;5087632;28;19992;-68
2022/11/22 09:31:20;;;;;;;;;;;;;;;3.61;47.31;93679.53;5082684;28;20045;-68
2022/11/22 09:33:46;;;;;;;;;;;;;;;4.28;50.37;93678.69;5084299;28;19988;-68
2022/11/22 09:36:14;;;;;;;;;;;;;;;3.49;50.61;93666.03;5082165;28;19988;-67
2022/11/22 09:38:39;;;;;;;;;;;;;;;3.95;50.24;93669.44;5084080;28;20484;-67
2022/11/22 09:41:17;;;;;;;;;;;;;;;3.20;51.84;93664.97;5081026;28;20087;-67
2022/11/22 09:43:42;;;;;;;;;;;;;;;2.08;54.18;93664.53;5064652;28;20234;-67
2022/11/22 09:46:10;;;;;;;;;;;;;;;2.93;52.36;93663.75;5082625;28;19969;-67
2022/11/22 09:49:02;;;;;;;;;;;;;;;4.04;51.46;93649.06;5063621;28;19985;-67
2022/11/22 09:51:28;;;;;;;;;;;;;;;4.18;49.13;93660.56;5073308;28;19992;-67
2022/11/22 09:54:04;;;;;;;;;;;;;;;4.62;50.06;93650.84;5061565;28;20061;-68
2022/11/22 09:56:29;;;;;;;;;;;;;;;2.96;49.59;93658.94;5082301;28;19998;-67
2022/11/22 09:58:56;;;;;;;;;;;;;;;3.62;50.15;93648.78;5058911;28;20425;-67
2022/11/22 10:01:37;;;;;;;;;;;;;;;4.83;47.38;93644.75;5062842;28;19985;-67
2022/11/22 10:04:20;;;;;;;;;;;;;;;4.83;46.03;93650.03;5065648;28;19988;-67
2022/11/22 10:06:46;;;;;;;;;;;;;;;4.59;47.34;93638.03;5084352;28;20005;-67
2022/11/22 10:09:31;;;;;;;;;;;;;;;5.12;49.65;93623.69;5071114;28;19996;-67
2022/11/22 10:11:58;;;;;;;;;;;;;;;4.11;52.58;93642.06;5069152;28;20049;-67
2022/11/22 10:14:27;;;;;;;;;;;;;;;4.42;47.64;93642.78;5064635;28;20042;-67
2022/11/22 10:16:54;;;;;;;;;;;;;;;4.48;50.75;93639.38;5086480;28;20014;-67
2022/11/22 10:19:22;;;;;;;;;;;;;;;5.24;46.69;93639.00;5069563;28;20030;-67
2022/11/22 10:21:47;;;;;;;;;;;;;;;5.24;46.63;93637.19;5085170;28;20300;-67
2022/11/22 10:24:14;;;;;;;;;;;;;;;5.57;47.18;93630.44;5082348;28;19996;-67
2022/11/22 10:26:39;;;;;;;;;;;;;;;2.21;50.84;93643.78;5072944;28;20372;-67
2022/11/22 10:29:07;;;;;;;;;;;;;;;4.47;50.81;93639.56;5086266;28;20155;-67
2022/11/22 10:31:35;;;;;;;;;;;;;;;4.82;49.52;93643.13;5085970;28;20083;-67
2022/11/22 10:34:12;;;;;;;;;;;;;;;5.20;47.94;93626.19;5068743;28;20325;-68
2022/11/22 10:36:56;;;;;;;;;;;;;;;5.30;47.14;93639.03;5084401;28;20302;-67
2022/11/22 10:39:36;;;;;;;;;;;;;;;4.40;46.10;93637.69;5084518;28;19973;-67
2022/11/22 10:42:08;;;;;;;;;;;;;;;4.77;45.00;93634.97;5088178;28;19991;-67
2022/11/22 10:44:33;;;;;;;;;;;;;;;5.07;47.61;93623.47;5084016;28;19994;-67
2022/11/22 10:47:01;;;;;;;;;;;;;;;5.39;49.45;93639.69;5087902;28;20763;-67
2022/11/22 10:49:29;;;;;;;;;;;;;;;5.39;48.13;93631.78;5067042;28;20018;-67
2022/11/22 10:51:57;;;;;;;;;;;;;;;5.24;46.47;93629.25;5085922;28;19996;-67
2022/11/22 10:54:31;;;;;;;;;;;;;;;3.59;47.04;93622.81;5086359;28;19976;-67
2022/11/22 10:56:59;;;;;;;;;;;;;;;4.74;50.26;93623.97;5089509;28;19999;-67
2022/11/22 10:59:24;;;;;;;;;;;;;;;4.96;48.21;93609.75;5089717;28;19973;-67
2022/11/22 11:02:08;;;;;;;;;;;;;;;5.04;44.96;93608.78;5088735;28;19992;-67
2022/11/22 11:04:34;;;;;;;;;;;;;;;3.95;53.28;93619.41;5064832;28;19992;-67
2022/11/22 11:07:00;;;;;;;;;;;;;;;4.66;46.24;93604.66;5067002;28;19976;-67
2022/11/22 11:09:57;;;;;;;;;;;;;;;4.98;49.75;93599.03;5064820;28;20564;-67
2022/11/22 11:12:42;;;;;;;;;;;;;;;4.47;44.14;93600.03;5049018;28;20587;-67
2022/11/22 11:15:20;;;;;;;;;;;;;;;4.18;46.03;93592.06;5087795;28;20078;-67
2022/11/22 11:17:45;;;;;;;;;;;;;;;5.35;50.45;93591.75;5085026;28;20256;-67
2022/11/22 11:20:21;;;;;;;;;;;;;;;5.32;44.53;93592.16;5066121;28;20027;-67
2022/11/22 11:22:47;;;;;;;;;;;;;;;6.06;45.84;93588.97;5086689;28;20004;-67
2022/11/22 11:25:31;;;;;;;;;;;;;;;6.56;47.46;93584.41;5086940;28;20004;-67
2022/11/22 11:27:58;;;;;;;;;;;;;;;6.32;46.46;93586.59;5066478;28;20799;-67
2022/11/22 11:30:23;;;;;;;;;;;;;;;6.42;46.95;93591.50;5060272;28;20500;-66
2022/11/22 11:32:49;;;;;;;;;;;;;;;6.63;47.80;93585.22;5083296;28;19989;-67
2022/11/22 11:35:15;;;;;;;;;;;;;;;6.47;45.07;93587.19;5085850;28;20439;-67
2022/11/22 11:37:40;;;;;;;;;;;;;;;5.99;48.58;93586.31;5084793;28;19991;-68
2022/11/22 11:40:12;;;;;;;;;;;;;;;6.28;47.16;93582.72;5089069;28;19996;-67
2022/11/22 11:42:37;;;;;;;;;;;;;;;6.20;46.82;93594.28;5068499;28;20045;-67
2022/11/22 11:45:19;;;;;;;;;;;;;;;6.21;45.42;93596.75;5083219;28;20017;-67
2022/11/22 11:47:45;;;;;;;;;;;;;;;6.20;44.51;93604.88;5081721;28;20121;-67
2022/11/22 11:50:17;;;;;;;;;;;;;;;5.90;46.12;93598.09;5085758;28;20079;-68
2022/11/22 11:52:47;;;;;;;;;;;;;;;5.59;47.61;93599.38;5086345;28;20243;-67
2022/11/22 11:55:14;;;;;;;;;;;;;;;3.19;49.19;93605.47;5064378;28;19976;-67
2022/11/22 11:57:41;;;;;;;;;;;;;;;4.02;52.23;93598.41;5086545;28;19988;-68
2022/11/22 12:00:14;;;;;;;;;;;;;;;4.81;48.94;93594.03;5066365;28;20066;-67
2022/11/22 12:02:40;;;;;;;;;;;;;;;4.83;51.53;93596.50;5069366;28;20006;-67
2022/11/22 12:05:05;;;;;;;;;;;;;;;5.33;47.28;93587.69;5084020;28;20563;-67
2022/11/22 12:07:33;;;;;;;;;;;;;;;5.53;49.06;93593.06;5081743;28;19965;-67
2022/11/22 12:09:59;;;;;;;;;;;;;;;5.63;51.35;93600.63;5081066;28;19995;-67
2022/11/22 12:12:39;;;;;;;;;;;;;;;5.61;51.42;93597.34;5081784;28;20504;-67
2022/11/22 12:15:13;;;;;;;;;;;;;;;4.87;52.20;93594.28;5078905;28;19964;-67
2022/11/22 12:17:47;;;;;;;;;;;;;;;5.39;47.92;93594.81;5075709;28;19987;-68
2022/11/22 12:20:36;;;;;;;;;;;;;;;5.72;46.60;93598.63;5067403;28;20450;-68
2022/11/22 12:23:11;;;;;;;;;;;;;;;5.13;44.86;93598.13;5030965;28;19973;-67
2022/11/22 12:25:40;;;;;;;;;;;;;;;3.85;51.59;93590.75;5041097;28;20104;-67
2022/11/22 12:28:24;;;;;;;;;;;;;;;4.47;49.70;93597.41;5038440;28;19993;-67
2022/11/22 12:30:58;;;;;;;;;;;;;;;3.33;49.28;93598.59;5040323;28;19984;-68
2022/11/22 12:33:26;;;;;;;;;;;;;;;4.25;52.69;93594.78;5040101;28;20190;-67
2022/11/22 12:35:51;;;;;;;;;;;;;;;4.83;52.39;93594.66;5055814;28;19997;-67
2022/11/22 12:38:22;;;;;;;;;;;;;;;4.56;48.04;93585.75;5040630;28;19964;-68
2022/11/22 12:40:48;;;;;;;;;;;;;;;4.84;50.35;93593.63;5040395;28;19995;-67
2022/11/22 12:43:19;;;;;;;;;;;;;;;5.17;50.67;93592.25;5038080;28;21385;-68
2022/11/22 12:45:47;;;;;;;;;;;;;;;5.02;49.55;93581.81;5058163;28;20489;-68
2022/11/22 12:48:19;;;;;;;;;;;;;;;5.43;51.53;93579.41;5055045;28;19992;-67
2022/11/22 12:50:45;;;;;;;;;;;;;;;5.26;53.05;93584.19;5040307;28;19993;-67
2022/11/22 12:53:12;;;;;;;;;;;;;;;5.61;50.50;93584.16;5056265;28;19989;-67
2022/11/22 12:55:55;;;;;;;;;;;;;;;5.65;50.49;93584.59;5060392;28;19973;-68
2022/11/22 12:58:23;;;;;;;;;;;;;;;5.74;48.55;93578.13;5042133;28;20456;-68
2022/11/22 13:00:58;;;;;;;;;;;;;;;5.12;49.61;93567.47;5039701;28;20476;-68
2022/11/22 13:03:26;;;;;;;;;;;;;;;5.03;47.46;93586.06;5039991;28;20432;-68
2022/11/22 13:05:53;;;;;;;;;;;;;;;5.31;48.17;93571.25;5037698;28;20019;-68
2022/11/22 13:08:32;;;;;;;;;;;;;;;4.87;48.23;93576.63;5059085;28;19992;-68
2022/11/22 13:11:03;;;;;;;;;;;;;;;5.11;50.67;93581.69;5042120;28;19981;-68
2022/11/22 13:13:30;;;;;;;;;;;;;;;4.82;47.52;93574.56;5059904;28;19996;-68
2022/11/22 13:15:56;;;;;;;;;;;;;;;5.24;51.13;93576.50;5056170;28;20023;-68
2022/11/22 13:18:26;;;;;;;;;;;;;;;5.35;50.86;93577.75;5038624;28;20012;-68
2022/11/22 13:21:10;;;;;;;;;;;;;;;4.38;49.09;93580.91;5040880;28;20091;-75
2022/11/22 13:23:48;;;;;;;;;;;;;;;5.03;50.58;93575.50;5083770;28;20834;-75
2022/11/22 13:26:22;;;;;;;;;;;;;;;5.27;51.00;93575.28;5085420;28;20540;-75
2022/11/22 13:28:47;;;;;;;;;;;;;;;5.34;51.47;93571.66;5067542;28;20003;-76
2022/11/22 13:31:14;;;;;;;;;;;;;;;5.07;49.63;93571.50;5079860;28;20016;-75
2022/11/22 13:33:51;;;;;;;;;;;;;;;5.11;50.15;93581.69;5061440;28;20135;-76
2022/11/22 13:36:23;;;;;;;;;;;;;;;5.38;50.00;93574.72;5082340;28;19996;-76
2022/11/22 13:38:49;;;;;;;;;;;;;;;5.64;45.25;93570.56;5080724;28;21391;-76
2022/11/22 13:41:33;;;;;;;;;;;;;;;5.53;47.07;93582.50;5064569;28;20240;-76
2022/11/22 13:43:58;;;;;;;;;;;;;;;5.26;50.23;93581.53;5061904;28;19992;-75
2022/11/22 13:46:45;;;;;;;;;;;;;;;5.27;46.85;93586.63;5065067;28;20406;-75
2022/11/22 13:49:12;;;;;;;;;;;;;;;5.42;51.30;93583.06;5069310;28;19988;-76
2022/11/22 13:51:49;;;;;;;;;;;;;;;5.77;50.99;93579.53;5088026;28;20356;-76
2022/11/22 13:54:37;;;;;;;;;;;;;;;5.83;48.08;93576.94;5090850;28;20490;-75
2022/11/22 13:57:04;;;;;;;;;;;;;;;5.91;49.41;93578.56;5077119;28;20315;-75
2022/11/22 13:59:29;;;;;;;;;;;;;;;6.05;48.17;93573.34;5067538;28;20029;-75
2022/11/22 14:01:54;;;;;;;;;;;;;;;6.20;49.66;93579.28;5072359;28;20027;-75
2022/11/22 14:04:20;;;;;;;;;;;;;;;6.18;48.79;93570.72;5068098;28;19988;-75